createdAt,value
2019-03-25T00:01:29.787Z,17.83
2019-03-25T00:07:24.771Z,18.26
2019-03-25T00:13:19.795Z,16.33
2019-03-25T00:19:14.812Z,16.03
2019-03-25T00:25:09.797Z,14.89
2019-03-25T00:31:04.782Z,15.32
2019-03-25T00:36:59.781Z,15.63
2019-03-25T00:42:54.821Z,16.27
2019-03-25T00:48:49.866Z,14.27
2019-03-25T00:54:49.766Z,14.33
2019-03-25T01:00:39.831Z,12.22
2019-03-25T01:06:34.804Z,12.41
2019-03-25T01:12:29.843Z,11.99
2019-03-25T01:18:24.836Z,12.31
2019-03-25T01:24:20.146Z,12.87
2019-03-25T01:30:14.899Z,10.49
2019-03-25T01:36:09.878Z,10.06
2019-03-25T01:42:04.837Z,9.1
2019-03-25T01:47:59.831Z,10.04
2019-03-25T01:53:54.856Z,10.53
2019-03-25T01:59:49.848Z,9.48
2019-03-25T02:05:44.836Z,9.83
2019-03-25T02:11:39.847Z,10.79
2019-03-25T02:17:34.851Z,10.63
2019-03-25T02:29:25.190Z,11.11
2019-03-25T02:29:25.294Z,10.21
2019-03-25T02:35:20.225Z,10.69
2019-03-25T02:41:14.899Z,10.69
2019-03-25T02:47:09.882Z,10.91
2019-03-25T02:53:04.885Z,16.01
2019-03-25T02:58:59.885Z,16.1
2019-03-25T03:04:54.887Z,15.64
2019-03-25T03:10:49.893Z,15.4
2019-03-25T03:16:44.905Z,15.36
2019-03-25T03:22:39.891Z,11.95
2019-03-25T03:28:34.986Z,9.96
2019-03-25T03:34:29.923Z,9.52
2019-03-25T03:40:24.962Z,9.44
2019-03-25T03:46:19.935Z,9.75
2019-03-25T03:52:14.936Z,8.33
2019-03-25T03:58:09.946Z,8
2019-03-25T04:04:04.982Z,8.32
2019-03-25T04:09:59.946Z,8.1
2019-03-25T04:15:54.954Z,8.8
2019-03-25T04:21:49.964Z,8.87
2019-03-25T04:27:44.942Z,8.23
2019-03-25T04:33:39.983Z,8.03
2019-03-25T04:39:34.948Z,8.64
2019-03-25T04:45:29.968Z,8.35
2019-03-25T04:51:24.955Z,7.86
2019-03-25T04:57:19.950Z,8.51
2019-03-25T05:03:14.986Z,7.97
2019-03-25T05:09:09.961Z,8.14
2019-03-25T05:15:04.962Z,8.61
2019-03-25T05:20:59.978Z,8.57
2019-03-25T05:26:55.010Z,8.12
2019-03-25T05:32:49.970Z,8.01
2019-03-25T05:38:44.992Z,8.25
2019-03-25T05:44:40.041Z,8.56
2019-03-25T05:50:35.011Z,9.06
2019-03-25T05:56:30.016Z,8.35
2019-03-25T06:02:25.009Z,8.65
2019-03-25T06:08:20.006Z,8.46
2019-03-25T06:14:15.041Z,8.83
2019-03-25T06:20:10.062Z,8.4
2019-03-25T06:26:05.056Z,10.08
2019-03-25T06:32:00.022Z,11.17
2019-03-25T06:37:55.010Z,10.67
2019-03-25T06:43:49.997Z,10.67
2019-03-25T06:49:45.019Z,10.03
2019-03-25T06:55:40.085Z,9.15
2019-03-25T07:01:35.035Z,9.04
2019-03-25T07:07:30.043Z,9.08
2019-03-25T07:13:25.040Z,8.78
2019-03-25T07:19:20.350Z,9.95
2019-03-25T07:25:15.059Z,9.53
2019-03-25T07:31:10.051Z,10.12
2019-03-25T07:37:05.057Z,9.04
2019-03-25T07:43:00.088Z,10.71
2019-03-25T07:48:55.063Z,10.12
2019-03-25T07:54:50.134Z,10.21
2019-03-25T08:00:45.138Z,11.62
2019-03-25T08:06:40.076Z,9.46
2019-03-25T08:12:35.091Z,8.92
2019-03-25T08:18:31.256Z,9.44
2019-03-25T08:24:25.093Z,9.83
2019-03-25T08:30:20.401Z,10.94
2019-03-25T08:36:15.112Z,10.9
2019-03-25T08:42:10.089Z,11.42
2019-03-25T08:48:05.120Z,12.51
2019-03-25T08:54:00.116Z,12.32
2019-03-25T08:59:57.396Z,14.04
2019-03-25T09:05:50.130Z,13.28
2019-03-25T09:11:45.125Z,11.72
2019-03-25T09:17:40.106Z,12.08
2019-03-25T09:23:35.131Z,11.38
2019-03-25T09:29:30.138Z,11.82
2019-03-25T09:35:25.123Z,10.74
2019-03-25T09:41:20.142Z,11.59
2019-03-25T09:47:15.172Z,9.44
2019-03-25T09:53:10.150Z,11.01
2019-03-25T09:59:05.203Z,10.06
2019-03-25T10:05:00.333Z,11.28
2019-03-25T10:10:55.190Z,13.16
2019-03-25T10:16:50.157Z,12.45
2019-03-25T10:22:45.189Z,13.25
2019-03-25T10:34:35.208Z,32.76
2019-03-25T10:34:35.236Z,10.44
2019-03-25T10:40:30.166Z,15.27
2019-03-25T10:46:25.200Z,51.87
2019-03-25T10:52:20.489Z,10.97
2019-03-25T10:58:15.219Z,43.72
2019-03-25T11:04:10.225Z,16.3
2019-03-25T11:10:05.200Z,14.38
2019-03-25T11:16:00.178Z,7.34
2019-03-25T11:27:54.050Z,3.49
2019-03-25T11:27:54.050Z,3.61
2019-03-25T11:33:45.193Z,2.87
2019-03-25T11:39:40.208Z,5.26
2019-03-25T11:45:35.231Z,2.74
2019-03-25T11:51:30.232Z,2.06
2019-03-25T11:57:25.553Z,1.95
2019-03-25T12:03:20.538Z,2.38
2019-03-25T12:09:15.260Z,1.81
2019-03-25T12:15:10.225Z,1.44
2019-03-25T12:21:05.232Z,1.94
2019-03-25T12:27:00.242Z,1.71
2019-03-25T12:33:03.501Z,2.02
2019-03-25T12:38:50.246Z,1.95
2019-03-25T12:44:45.250Z,2.4
2019-03-25T12:50:40.287Z,1.74
2019-03-25T12:56:35.255Z,2.13
2019-03-25T13:02:30.265Z,2.28
2019-03-25T13:08:32.949Z,1.99
2019-03-25T13:14:20.579Z,2.27
2019-03-25T13:20:15.281Z,1.67
2019-03-25T13:26:10.282Z,2
2019-03-25T13:32:05.293Z,1.99
2019-03-25T13:38:00.323Z,1.75
2019-03-25T13:43:55.320Z,1.86
2019-03-25T13:49:50.337Z,2.12
2019-03-25T13:55:45.358Z,2
2019-03-25T14:01:40.308Z,2.23
2019-03-25T14:07:35.306Z,2.3
2019-03-25T14:13:30.342Z,2.13
2019-03-25T14:19:25.309Z,1.9
2019-03-25T14:25:20.332Z,2.21
2019-03-25T14:31:15.332Z,1.83
2019-03-25T14:37:10.335Z,2.72
2019-03-25T14:43:05.324Z,2.2
2019-03-25T14:49:00.330Z,1.96
2019-03-25T14:54:55.340Z,2.17
2019-03-25T15:00:50.341Z,2.55
2019-03-25T15:06:45.351Z,1.95
2019-03-25T15:12:40.366Z,2.67
2019-03-25T15:18:35.343Z,2.02
2019-03-25T15:24:30.344Z,3.03
2019-03-25T15:30:35.366Z,1.93
2019-03-25T15:36:20.370Z,1.75
2019-03-25T15:42:15.371Z,2.01
2019-03-25T15:48:10.417Z,2.24
2019-03-25T15:54:05.356Z,1.64
2019-03-25T16:00:00.459Z,1.97
2019-03-25T16:05:55.423Z,2.28
2019-03-25T16:11:50.395Z,2.1
2019-03-25T16:17:45.397Z,1.66
2019-03-25T16:23:40.383Z,2
2019-03-25T16:29:36.647Z,2.99
2019-03-25T16:35:30.753Z,2.69
2019-03-25T16:41:25.700Z,2.4
2019-03-25T16:47:20.421Z,2.79
2019-03-25T16:53:15.439Z,2.85
2019-03-25T16:59:10.423Z,2.58
2019-03-25T17:05:05.411Z,2.46
2019-03-25T17:11:00.430Z,2.96
2019-03-25T17:16:55.447Z,2.61
2019-03-25T17:22:50.638Z,3.62
2019-03-25T17:28:45.437Z,2.19
2019-03-25T17:34:40.449Z,2.53
2019-03-25T17:40:35.504Z,2.52
2019-03-25T17:46:30.492Z,2.59
2019-03-25T17:52:25.483Z,2.54
2019-03-25T17:58:20.496Z,2.66
2019-03-25T18:04:15.481Z,3.14
2019-03-25T18:10:10.481Z,2.38
2019-03-25T18:16:05.543Z,2.94
2019-03-25T18:22:00.475Z,2.69
2019-03-25T18:27:55.501Z,2.69
2019-03-25T18:33:50.495Z,2.71
2019-03-25T18:39:45.494Z,3.45
2019-03-25T18:45:40.505Z,3.04
2019-03-25T18:51:36.040Z,3.04
2019-03-25T18:57:30.491Z,3.54
2019-03-25T19:03:25.499Z,4.52
2019-03-25T19:09:20.526Z,3.89
2019-03-25T19:15:15.506Z,3.47
2019-03-25T19:21:10.529Z,3.83
2019-03-25T19:27:05.534Z,4.97
2019-03-25T19:33:00.526Z,5.49
2019-03-25T19:38:55.587Z,5.43
2019-03-25T19:44:50.603Z,6.47
2019-03-25T19:50:45.556Z,9.55
2019-03-25T19:56:40.573Z,7.21
2019-03-25T20:02:35.554Z,7.08
2019-03-25T20:08:30.579Z,7.82
2019-03-25T20:14:25.845Z,8.79
2019-03-25T20:20:20.570Z,8.32
2019-03-25T20:26:15.562Z,8.39
2019-03-25T20:32:10.617Z,9.42
2019-03-25T20:38:05.586Z,7.31
2019-03-25T20:44:00.635Z,9.09
2019-03-25T20:49:55.586Z,7.76
2019-03-25T20:55:50.614Z,7.55
2019-03-25T21:01:45.594Z,7.8
2019-03-25T21:07:40.583Z,7.84
2019-03-25T21:13:35.571Z,6.9
2019-03-25T21:19:30.592Z,6.36
2019-03-25T21:25:25.638Z,6.89
2019-03-25T21:31:20.652Z,6.85
2019-03-25T21:37:15.616Z,6.45
2019-03-25T21:43:10.640Z,6.37
2019-03-25T21:49:05.705Z,6.52
2019-03-25T21:55:00.661Z,6.03
2019-03-25T22:00:55.661Z,5.93
2019-03-25T22:12:45.616Z,6.03
2019-03-25T22:12:45.665Z,6.29
2019-03-25T22:18:40.661Z,7.15
2019-03-25T22:24:35.666Z,6.22
2019-03-25T22:30:30.604Z,7.36
2019-03-25T22:36:26.022Z,6.74
2019-03-25T22:42:20.627Z,6.46
2019-03-25T22:48:15.645Z,5.6
2019-03-25T22:54:10.626Z,5.94
2019-03-25T23:06:00.686Z,5.65
2019-03-25T23:06:00.733Z,5.9
2019-03-25T23:11:55.701Z,5.71
2019-03-25T23:17:50.688Z,5.88
2019-03-25T23:23:45.685Z,5.99
2019-03-25T23:29:40.693Z,5.12
2019-03-25T23:35:35.680Z,4.57
2019-03-25T23:41:30.707Z,4.91
2019-03-25T23:47:26.069Z,5.28
2019-03-25T23:59:15.701Z,5.19
2019-03-25T23:59:15.742Z,4.3
